LFLYLEZL

Guest
Details From LFLY - Lyon Bron
To LEZL - Sevilla
Flight Number -
Tags generated
Created
Modified
Stats Distance 705 nm / 1,306 km
Max Altitude 34,200 ft / 10,424 m
Waypoints 14
Social Downloads 0
Likes 0
Share VATSIM

Download

Looking for another format? Having issues loading an existing format? Contact us
Advertisement - Login to hide

Notes

Basic altitude profile: - Ascent Rate: 2500ft/min - Ascent Speed: 250kts - Cruise Altitude: 35000ft - Cruise Speed: 420kts - Descent Rate: 1500ft/min - Descent Speed: 250kts Options: - Use NATs: yes - Use PACOTS: yes - Use low airways: yes - Use high airways: yes

Route

LFLY OLRAK UN869 OBUTO UN871 VTB UN10 HIJ LEZL

ID Type Via Altitude Latitude Longitude Leg Dist Tot Dist Heading (true) Name
O LFLY APT - 0 ft / 0 m 45.72717˚ 4.94427˚ - 0 nm - Lyon Bron
OLRAK FIX - 34,000 ft / 10,363 m 44.78444˚ 2.83722˚ 105 nm 105 nm 238° / 237° -
TBO VOR UN869 (AWY-HI) 34,000 ft / 10,363 m 43.33222˚ 0.14575˚ 145 nm 250 nm 234° / 232° TARBES VOR
OBUTO FIX UN869 (AWY-HI) 34,000 ft / 10,363 m 43.15917˚ 0.02083˚ 11 nm 262 nm 208° / 208° -
LATEK FIX UN871 (AWY-HI) 34,000 ft / 10,363 m 42.87500˚ -0.65694˚ 34 nm 296 nm 240° / 240° -
LARDA FIX UN871 (AWY-HI) 34,000 ft / 10,363 m 42.13158˚ -1.36209˚ 54 nm 351 nm 215° / 215° -
SEGRE FIX UN871 (AWY-HI) 34,000 ft / 10,363 m 41.02283˚ -2.37646˚ 80 nm 432 nm 215° / 214° -
LIPOR FIX UN871 (AWY-HI) 34,000 ft / 10,363 m 40.49105˚ -2.84811˚ 38 nm 470 nm 214° / 214° -
PALIO FIX UN871 (AWY-HI) 34,000 ft / 10,363 m 40.26216˚ -3.04831˚ 16 nm 487 nm 214° / 214° -
VTB VOR UN871 (AWY-HI) 34,000 ft / 10,363 m 39.78077˚ -3.46403˚ 34 nm 521 nm 214° / 213° VILLATOBAS VOR-DME
BOGAS FIX UN10 (AWY-HI) 34,200 ft / 10,424 m 39.50610˚ -3.82465˚ 23 nm 545 nm 225° / 225° -
CRISA FIX UN10 (AWY-HI) 24,500 ft / 7,468 m 38.93861˚ -4.55628˚ 48 nm 593 nm 225° / 225° -
HIJ VOR UN10 (AWY-HI) 24,500 ft / 7,468 m 38.50813˚ -5.09968˚ 36 nm 629 nm 225° / 224° HINOJOSA VOR-DME
O LEZL APT - 0 ft / 0 m 37.41794˚ -5.89309˚ 75 nm 705 nm 210° / 210° Sevilla

Altitude Profile

Advertisement - Login to hide

Weather


0- 5 10 15 20 25 30 35+ Temperature / ° C

Clouds and Precipitation
Forecast for 2017-12-11 18:00 UTC. Updated 29 minutes ago

Ground ~20,000 ft ~40,000 ft Winds

LFLY

Details ICAO LFLY (LYN)
Name Lyon Bron
Region France
Timezone Europe/Paris (UTC+1.0)
Stats Elevation 659 ft / 201 m (AMSL)
Location 45.727171° 4.944274°
Runways 1
Magnetic Variation 1.449° E

METAR

LFLY 111330Z AUTO 20010KT 9999 -RA BKN050/// OVC062/// ///TCU 09/05 Q0985 BECMG NSC

Decode

TAF

TAF TAF LFLY 111100Z 1112/1212 18012KT CAVOK PROB40 TEMPO 1116/1120 17015G30KT BECMG 1123/1201 VRB02KT TEMPO 1200/1212 4000 RA OVC009 PROB40 TEMPO 1205/1210 4000 BR OVC001 PROB30 TEMPO 1205/1210 2000 -SNRA

Decode

Departure Runways

ID Width Length Bearing (true) Bearing (mag) Surface Threshold Offset Overrun Length
16 148 ft / 45 m 5,972 ft / 1,820 m 163.44° 161.99° Asphalt 984 ft / 300 m 0 ft / 0 m
34 148 ft / 45 m 5,972 ft / 1,820 m 343.44° 341.99° Asphalt 984 ft / 300 m 0 ft / 0 m

LEZL

Details ICAO LEZL (SVQ)
Name Sevilla
Region Spain
Timezone Europe/Madrid (UTC+1.0)
Stats Elevation 111 ft / 34 m (AMSL)
Location 37.417939° -5.893093°
Runways 1
Magnetic Variation 1.297° W

METAR

LEZL 111330Z 28014KT 9999 FEW039 15/07 Q1003 NOSIG

Decode

TAF

TAF AMD LEZL 110926Z 1109/1209 26008KT 9999 SCT020 TX17/1115Z TN04/1206Z= TAF AMD LFRH 110902Z 1109/1206 33015G25KT 9999 SCT015 BKN020 OVC035 TEMPO 1109/1117 33020G30KT RA OVC012TCU BECMG 1117/1119 33010KT CAVOK PROB30 TEMPO 1203/1206 3000 BR

Decode

Destination Runways

ID Width Length Bearing (true) Bearing (mag) Surface Threshold Offset Overrun Length
09 148 ft / 45 m 11,008 ft / 3,355 m 89.75° 91.05° Asphalt 0 ft / 0 m 0 ft / 0 m
27 148 ft / 45 m 11,008 ft / 3,355 m 269.77° 271.07° Asphalt 0 ft / 0 m 0 ft / 0 m

Approach Navaids

Runway Type Ident Frequency Range Bearing (true) Bearing (mag) Slope Elevation
09 Localiser ISE 111.10 MHz 18 nm / 33 km 89.77° 91.07° - 111 ft / 34 m (AMSL)
09 Glidescope ISE 111.10 MHz 10 nm / 19 km 89.76° 91.05° 3.00° 111 ft / 34 m (AMSL)
09 DME ISE 111.10 MHz 18 nm / 33 km - - - 102 ft / 31 m (AMSL)
27 Localiser ISV 110.10 MHz 18 nm / 33 km 269.74° 271.04° - 111 ft / 34 m (AMSL)
27 Glidescope ISV 110.10 MHz 10 nm / 19 km 269.76° 271.05° 3.00° 22 ft / 7 m (AMSL)
27 DME ISV 110.10 MHz 18 nm / 33 km - - - 22 ft / 7 m (AMSL)

Popular Alternatives